Time;durP1;ratioP1;P1;durP2;ratioP2;P2;SDS_P1;SDS_P2;PMS_P1;PMS_P2;Temp;Humidity;BMP_temperature;BMP_pressure;BME280_temperature;BME280_humidity;BME280_pressure;Samples;Min_cycle;Max_cycle;Signal;HPM_P1;HPM_P2
2022/11/10 00:02:26;;;;;;;0.50;0.50;;;9.20;99.90;;;;;;4960856;28;20312;-64
2022/11/10 00:05:13;;;;;;;0.50;0.50;;;9.20;99.90;;;;;;4964354;28;20065;-64
2022/11/10 00:08:04;;;;;;;0.68;0.57;;;9.20;99.90;;;;;;4964432;28;20108;-64
2022/11/10 00:11:00;;;;;;;3.03;0.75;;;9.20;99.90;;;;;;4965042;28;20101;-64
2022/11/10 00:17:03;;;;;;;1.15;0.70;;;9.20;99.90;;;;;;4963546;28;20050;-64
2022/11/10 00:19:48;;;;;;;1.30;0.65;;;9.20;99.90;;;;;;4964945;28;20546;-64
2022/11/10 00:22:34;;;;;;;1.02;0.70;;;9.20;99.90;;;;;;4964349;28;20435;-64
2022/11/10 00:25:20;;;;;;;0.55;0.55;;;9.20;99.90;;;;;;4965276;28;20077;-62
2022/11/10 00:28:05;;;;;;;0.65;0.63;;;9.20;99.90;;;;;;4965062;28;20188;-63
2022/11/10 00:30:51;;;;;;;1.55;0.75;;;9.20;99.90;;;;;;4962323;28;20096;-63
2022/11/10 00:33:38;;;;;;;0.90;0.50;;;9.20;99.90;;;;;;4964056;28;20429;-63
2022/11/10 00:36:24;;;;;;;0.83;0.47;;;9.20;99.90;;;;;;4961730;28;20108;-63
2022/11/10 00:39:10;;;;;;;1.55;0.82;;;9.20;99.90;;;;;;4958584;28;20058;-63
2022/11/10 00:41:56;;;;;;;2.08;0.50;;;9.20;99.90;;;;;;4966172;28;20080;-63
2022/11/10 00:44:41;;;;;;;1.08;0.50;;;9.20;99.90;;;;;;4965111;28;20608;-64
2022/11/10 00:47:27;;;;;;;1.15;0.93;;;9.20;99.90;;;;;;4964564;28;20436;-64
2022/11/10 00:50:12;;;;;;;0.95;0.80;;;9.20;99.90;;;;;;4965213;28;20057;-64
2022/11/10 00:52:58;;;;;;;0.55;0.55;;;9.20;99.90;;;;;;4961391;28;20073;-65
2022/11/10 00:55:43;;;;;;;2.90;0.85;;;9.30;99.90;;;;;;4963545;28;20515;-64
2022/11/10 00:58:29;;;;;;;0.90;0.80;;;9.30;99.90;;;;;;4962499;28;20057;-64
2022/11/10 01:01:16;;;;;;;1.45;0.50;;;9.30;99.90;;;;;;4964898;28;20197;-63
2022/11/10 01:04:02;;;;;;;0.68;0.65;;;9.30;99.90;;;;;;4963564;28;20264;-64
2022/11/10 01:06:47;;;;;;;0.73;0.73;;;9.30;99.90;;;;;;4962732;28;20179;-64
2022/11/10 01:09:33;;;;;;;1.45;1.35;;;9.30;99.90;;;;;;4962364;28;20249;-64
2022/11/10 01:12:18;;;;;;;1.23;1.10;;;9.40;99.90;;;;;;4961800;28;20061;-63
2022/11/10 01:15:05;;;;;;;1.80;0.98;;;9.40;99.90;;;;;;4965254;28;20073;-64
2022/11/10 01:17:52;;;;;;;2.78;1.40;;;9.40;99.90;;;;;;4960627;28;20196;-64
2022/11/10 01:20:37;;;;;;;2.55;1.23;;;9.40;99.90;;;;;;4965946;28;20464;-64
2022/11/10 01:23:23;;;;;;;1.60;1.20;;;9.40;99.90;;;;;;4961886;28;20066;-64
2022/11/10 01:26:10;;;;;;;1.30;1.20;;;9.40;99.90;;;;;;4961299;28;20436;-64
2022/11/10 01:28:56;;;;;;;1.85;1.70;;;9.40;99.90;;;;;;4958664;28;20062;-63
2022/11/10 01:31:41;;;;;;;2.63;2.42;;;9.40;99.90;;;;;;4962090;28;20473;-64
2022/11/10 01:34:27;;;;;;;2.63;2.42;;;9.40;99.90;;;;;;4961156;28;20066;-64
2022/11/10 01:37:12;;;;;;;4.47;2.30;;;9.40;99.90;;;;;;4963966;28;20057;-64
2022/11/10 01:39:58;;;;;;;3.00;2.75;;;9.50;99.90;;;;;;4960766;28;20809;-63
2022/11/10 01:42:52;;;;;;;3.13;2.65;;;9.50;99.90;;;;;;4959013;28;20225;-63
2022/11/10 01:45:37;;;;;;;2.20;1.90;;;9.50;99.90;;;;;;4961214;28;20069;-63
2022/11/10 01:48:31;;;;;;;2.70;2.40;;;9.50;99.90;;;;;;4964483;28;20066;-63
2022/11/10 01:51:22;;;;;;;2.35;2.10;;;9.50;99.90;;;;;;4962297;28;20127;-63
2022/11/10 01:54:12;;;;;;;3.13;2.55;;;9.50;99.90;;;;;;4961453;28;20073;-63
2022/11/10 01:57:01;;;;;;;3.35;2.97;;;9.50;99.90;;;;;;4962557;28;20575;-62
2022/11/10 01:59:48;;;;;;;5.75;3.05;;;9.40;99.90;;;;;;4961652;28;20066;-63
2022/11/10 02:03:01;;;;;;;5.65;3.90;;;9.40;99.90;;;;;;4963485;28;20895;-63
2022/11/10 02:05:48;;;;;;;3.53;3.22;;;9.40;99.90;;;;;;4961138;28;20057;-64
2022/11/10 02:08:35;;;;;;;5.20;3.65;;;9.40;99.90;;;;;;4959170;28;20359;-62
2022/11/10 02:11:21;;;;;;;4.53;3.55;;;9.40;99.90;;;;;;4963705;28;20358;-62
2022/11/10 02:14:08;;;;;;;3.50;2.95;;;9.40;99.90;;;;;;4963407;28;20081;-64
2022/11/10 02:16:53;;;;;;;2.80;2.40;;;9.40;99.90;;;;;;4965068;28;20062;-64
2022/11/10 02:19:40;;;;;;;2.80;2.50;;;9.30;99.90;;;;;;4962378;28;20429;-63
2022/11/10 02:22:26;;;;;;;4.90;3.13;;;9.40;99.90;;;;;;4962275;28;20058;-64
2022/11/10 02:25:21;;;;;;;6.22;3.40;;;9.40;99.90;;;;;;4961409;28;20483;-64
2022/11/10 02:28:06;;;;;;;3.58;3.28;;;9.30;99.90;;;;;;4960386;28;20061;-63
2022/11/10 02:30:52;;;;;;;4.30;3.42;;;9.30;99.90;;;;;;4962495;28;20053;-64
2022/11/10 02:33:38;;;;;;;5.70;3.80;;;9.30;99.90;;;;;;4964710;28;20303;-63
2022/11/10 02:36:23;;;;;;;3.42;2.90;;;9.40;99.90;;;;;;4964136;28;20599;-63
2022/11/10 02:39:09;;;;;;;4.88;3.72;;;9.40;99.90;;;;;;4960798;28;20076;-66
2022/11/10 02:41:55;;;;;;;4.25;3.33;;;9.40;99.90;;;;;;4960671;28;20089;-63
2022/11/10 02:44:40;;;;;;;4.18;3.78;;;9.40;99.90;;;;;;4959354;28;20535;-63
2022/11/10 02:47:26;;;;;;;4.10;3.40;;;9.40;99.90;;;;;;4961244;28;20058;-63
2022/11/10 02:50:11;;;;;;;4.80;3.35;;;9.30;99.90;;;;;;4962310;28;20050;-63
2022/11/10 02:52:57;;;;;;;4.18;3.03;;;9.40;99.90;;;;;;4961307;28;20057;-63
2022/11/10 02:55:42;;;;;;;7.43;3.65;;;9.40;99.90;;;;;;4968154;28;20107;-63
2022/11/10 02:58:28;;;;;;;5.80;3.35;;;9.30;99.90;;;;;;4962289;28;20774;-65
2022/11/10 03:01:13;;;;;;;4.45;3.13;;;9.40;99.90;;;;;;4961468;28;20410;-64
2022/11/10 03:03:59;;;;;;;4.00;3.38;;;9.30;99.90;;;;;;4960960;28;20062;-63
2022/11/10 03:06:45;;;;;;;4.13;3.35;;;9.30;99.90;;;;;;4960506;28;20057;-64
2022/11/10 03:09:30;;;;;;;3.88;3.08;;;9.30;99.90;;;;;;4961412;28;20057;-63
2022/11/10 03:12:16;;;;;;;3.60;3.10;;;9.20;99.90;;;;;;4961624;28;20197;-64
2022/11/10 03:15:01;;;;;;;3.33;3.03;;;9.20;99.90;;;;;;4960443;28;20140;-64
2022/11/10 03:17:47;;;;;;;5.97;3.67;;;9.20;99.90;;;;;;4962966;28;20089;-64
2022/11/10 03:20:32;;;;;;;3.90;3.13;;;9.20;99.90;;;;;;4961974;28;20065;-65
2022/11/10 03:23:18;;;;;;;7.03;3.40;;;9.20;99.90;;;;;;4960119;28;20061;-63
2022/11/10 03:26:05;;;;;;;3.95;3.28;;;9.20;99.90;;;;;;4960548;28;20120;-64
2022/11/10 03:28:50;;;;;;;3.20;2.90;;;9.20;99.90;;;;;;4959847;28;20121;-63
2022/11/10 03:31:36;;;;;;;3.30;2.88;;;9.20;99.90;;;;;;4960948;28;20128;-63
2022/11/10 03:34:21;;;;;;;2.85;2.65;;;9.20;99.90;;;;;;4960566;28;20085;-63
2022/11/10 03:37:06;;;;;;;4.43;3.53;;;9.20;99.90;;;;;;4966382;28;20525;-64
2022/11/10 03:39:52;;;;;;;3.72;2.58;;;9.20;99.90;;;;;;4967573;28;20444;-64
2022/11/10 03:42:45;;;;;;;4.15;3.13;;;9.20;99.90;;;;;;4966485;28;20350;-63
2022/11/10 03:45:30;;;;;;;4.80;3.47;;;9.20;99.90;;;;;;4966616;28;20081;-63
2022/11/10 03:48:16;;;;;;;6.53;3.45;;;9.20;99.90;;;;;;4968454;28;20774;-62
2022/11/10 03:51:01;;;;;;;4.80;3.85;;;9.20;99.90;;;;;;4964863;28;20640;-62
2022/11/10 03:53:47;;;;;;;4.32;3.22;;;9.20;99.90;;;;;;4966051;28;20464;-63
2022/11/10 03:56:32;;;;;;;4.63;3.03;;;9.20;99.90;;;;;;4963964;28;20523;-63
2022/11/10 03:59:18;;;;;;;3.25;2.95;;;9.20;99.90;;;;;;4967838;28;20436;-63
2022/11/10 04:02:03;;;;;;;2.75;2.50;;;9.20;99.90;;;;;;4972244;28;20201;-63
2022/11/10 04:11:02;;;;;;;3.00;2.70;;;9.30;99.90;;;;;;4965463;28;20059;-63
2022/11/10 04:16:52;;;;;;;5.32;2.50;;;9.20;99.90;;;;;;4965920;28;20347;-64
2022/11/10 04:19:37;;;;;;;2.70;2.45;;;9.20;99.90;;;;;;4963182;28;20159;-64
2022/11/10 04:25:27;;;;;;;3.30;2.67;;;9.20;99.90;;;;;;4966978;28;20533;-63
2022/11/10 04:28:12;;;;;;;3.67;3.28;;;9.20;99.90;;;;;;4968551;28;20449;-64
2022/11/10 04:30:58;;;;;;;3.58;2.80;;;9.20;99.90;;;;;;4966388;28;20049;-64
2022/11/10 04:33:44;;;;;;;5.45;3.58;;;9.20;99.90;;;;;;4965979;28;20093;-64
2022/11/10 04:36:32;;;;;;;4.80;3.55;;;9.30;99.90;;;;;;4966497;28;20160;-62
2022/11/10 04:39:17;;;;;;;3.70;3.10;;;9.20;99.90;;;;;;4966404;28;20069;-63
2022/11/10 04:42:02;;;;;;;2.80;2.55;;;9.30;99.90;;;;;;4963340;28;20424;-64
2022/11/10 04:44:48;;;;;;;3.15;2.58;;;9.30;99.90;;;;;;4966733;28;20061;-64
2022/11/10 04:47:33;;;;;;;5.07;3.60;;;9.20;99.90;;;;;;4964767;28;20116;-63
2022/11/10 04:50:19;;;;;;;3.60;3.15;;;9.30;99.90;;;;;;4963526;28;20433;-63
2022/11/10 04:53:04;;;;;;;3.80;3.40;;;9.20;99.90;;;;;;4963644;28;20713;-64
2022/11/10 04:55:50;;;;;;;6.32;3.97;;;9.30;99.90;;;;;;4964902;28;20089;-64
2022/11/10 04:58:35;;;;;;;4.68;3.75;;;9.20;99.90;;;;;;4962544;28;20050;-64
2022/11/10 05:01:24;;;;;;;4.10;3.53;;;9.20;99.90;;;;;;4963009;28;20614;-64
2022/11/10 05:04:09;;;;;;;5.05;3.70;;;9.20;99.90;;;;;;4961032;28;20700;-63
2022/11/10 05:06:55;;;;;;;7.63;4.35;;;9.20;99.90;;;;;;4965953;28;20092;-62
2022/11/10 05:09:40;;;;;;;4.35;3.72;;;9.20;99.90;;;;;;4964193;28;20914;-63
2022/11/10 05:12:25;;;;;;;5.45;3.72;;;9.20;99.90;;;;;;4962831;28;20061;-64
2022/11/10 05:15:11;;;;;;;9.35;4.22;;;9.10;99.90;;;;;;4961606;28;20057;-64
2022/11/10 05:17:57;;;;;;;6.55;4.80;;;9.10;99.90;;;;;;4962555;28;20121;-64
2022/11/10 05:20:42;;;;;;;6.97;5.00;;;9.10;99.90;;;;;;4965415;28;20061;-65
2022/11/10 05:23:37;;;;;;;11.63;7.57;;;9.00;99.90;;;;;;4962932;28;20603;-63
2022/11/10 05:26:22;;;;;;;17.88;7.63;;;9.00;99.90;;;;;;4962636;28;20552;-63
2022/11/10 05:29:07;;;;;;;11.75;7.57;;;8.90;99.90;;;;;;4962449;28;20061;-64
2022/11/10 05:31:53;;;;;;;12.25;9.43;;;8.80;99.90;;;;;;4961591;28;20186;-64
2022/11/10 05:34:38;;;;;;;13.25;8.85;;;8.80;99.90;;;;;;4962442;28;20105;-65
2022/11/10 05:37:24;;;;;;;11.63;8.23;;;8.80;99.90;;;;;;4963101;28;20056;-65
2022/11/10 05:40:10;;;;;;;17.52;11.73;;;8.70;99.90;;;;;;4962608;28;20065;-64
2022/11/10 05:42:56;;;;;;;13.63;10.50;;;8.70;99.90;;;;;;4962286;28;20072;-65
2022/11/10 05:45:41;;;;;;;15.75;10.48;;;8.70;99.90;;;;;;4961031;28;20677;-64
2022/11/10 05:48:27;;;;;;;13.43;9.73;;;8.60;99.90;;;;;;4962892;28;20351;-65
2022/11/10 05:51:12;;;;;;;15.52;10.48;;;8.60;99.90;;;;;;4963088;28;20441;-64
2022/11/10 05:53:58;;;;;;;16.70;10.10;;;8.60;99.90;;;;;;4964630;28;20061;-65
2022/11/10 05:56:44;;;;;;;13.98;9.38;;;8.50;99.90;;;;;;4961237;28;20707;-63
2022/11/10 05:59:29;;;;;;;13.45;9.15;;;8.50;99.90;;;;;;4962749;28;20109;-63
2022/11/10 06:02:15;;;;;;;13.40;9.95;;;8.50;99.90;;;;;;4960394;28;20108;-64
2022/11/10 06:05:01;;;;;;;16.08;9.73;;;8.40;99.90;;;;;;4962383;28;20113;-62
2022/11/10 06:07:46;;;;;;;13.77;9.77;;;8.40;99.90;;;;;;4957135;28;20053;-64
2022/11/10 06:10:33;;;;;;;12.85;8.68;;;8.40;99.90;;;;;;4963016;28;20049;-58
2022/11/10 06:13:18;;;;;;;11.80;9.48;;;8.40;99.90;;;;;;4962111;28;20058;-55
2022/11/10 06:16:04;;;;;;;11.38;8.25;;;8.40;99.90;;;;;;4962358;28;20065;-55
2022/11/10 06:18:50;;;;;;;14.30;9.88;;;8.30;99.90;;;;;;4962416;28;20181;-55
2022/11/10 06:21:36;;;;;;;14.40;10.13;;;8.30;99.90;;;;;;4958663;28;20532;-55
2022/11/10 06:24:21;;;;;;;12.18;9.45;;;8.30;99.90;;;;;;4961795;28;20162;-55
2022/11/10 06:27:06;;;;;;;18.15;10.07;;;8.20;99.90;;;;;;4962559;28;20077;-55
2022/11/10 06:29:52;;;;;;;12.30;9.43;;;8.20;99.90;;;;;;4959296;28;20113;-51
2022/11/10 06:32:41;;;;;;;11.07;8.85;;;8.10;99.90;;;;;;4957245;28;20453;-52
2022/11/10 06:35:27;;;;;;;12.88;9.05;;;8.10;99.90;;;;;;4968102;28;20115;-54
2022/11/10 06:38:13;;;;;;;12.65;7.47;;;8.10;99.90;;;;;;4962104;28;20046;-54
2022/11/10 06:40:58;;;;;;;8.95;6.53;;;8.00;99.90;;;;;;4959973;28;20432;-53
2022/11/10 06:43:43;;;;;;;10.13;7.28;;;8.00;99.90;;;;;;4962302;28;20377;-54
2022/11/10 06:46:29;;;;;;;11.80;7.43;;;8.00;99.90;;;;;;4960822;28;20402;-53
2022/11/10 06:49:14;;;;;;;10.77;7.70;;;8.00;99.90;;;;;;4961988;28;20061;-54
2022/11/10 06:52:00;;;;;;;13.40;9.35;;;7.90;99.90;;;;;;4971467;28;20065;-51
2022/11/10 06:54:45;;;;;;;26.08;9.40;;;7.90;99.90;;;;;;4962853;28;20062;-52
2022/11/10 06:57:38;;;;;;;17.30;8.20;;;7.90;99.90;;;;;;4962237;28;20416;-54
2022/11/10 07:00:24;;;;;;;13.43;7.82;;;7.90;99.90;;;;;;4963684;28;20061;-54
2022/11/10 07:03:12;;;;;;;11.35;8.20;;;8.00;99.90;;;;;;4960831;28;20065;-53
2022/11/10 07:05:57;;;;;;;12.68;8.05;;;8.00;99.90;;;;;;4961542;28;20185;-52
2022/11/10 07:08:43;;;;;;;11.45;7.25;;;8.00;99.90;;;;;;4961234;28;20086;-51
2022/11/10 07:11:29;;;;;;;10.27;7.70;;;8.10;99.90;;;;;;4964899;28;20181;-53
2022/11/10 07:14:14;;;;;;;9.07;6.75;;;8.10;99.90;;;;;;4960686;28;20065;-54
2022/11/10 07:17:00;;;;;;;8.70;7.20;;;8.20;99.90;;;;;;4961009;28;20066;-52
2022/11/10 07:19:45;;;;;;;11.80;8.07;;;8.30;99.90;;;;;;4960768;28;20104;-52
2022/11/10 07:22:30;;;;;;;12.10;7.20;;;8.40;99.90;;;;;;4960774;28;20081;-54
2022/11/10 07:25:16;;;;;;;10.77;6.20;;;8.60;99.90;;;;;;4961771;28;20567;-52
2022/11/10 07:28:04;;;;;;;5.63;4.35;;;8.90;99.90;;;;;;4961481;28;20057;-51
2022/11/10 07:30:50;;;;;;;5.75;4.68;;;9.00;99.90;;;;;;4960988;28;20140;-50
2022/11/10 07:33:35;;;;;;;6.15;5.28;;;9.20;99.90;;;;;;4961449;28;20061;-52
2022/11/10 07:36:20;;;;;;;8.88;6.13;;;9.30;99.90;;;;;;4963004;28;20058;-52
2022/11/10 07:39:06;;;;;;;8.43;6.95;;;9.70;99.90;;;;;;4959778;28;20417;-54
2022/11/10 07:41:51;;;;;;;8.07;6.95;;;10.00;99.90;;;;;;4957590;28;20062;-50
2022/11/10 07:44:37;;;;;;;5.35;4.82;;;10.50;99.90;;;;;;4963757;28;20057;-58
2022/11/10 07:47:24;;;;;;;9.05;5.50;;;11.00;99.90;;;;;;4960279;28;20108;-54
2022/11/10 07:50:09;;;;;;;8.38;4.00;;;11.30;99.90;;;;;;4960001;28;20638;-54
2022/11/10 07:53:16;;;;;;;8.05;4.30;;;11.60;99.90;;;;;;4958331;28;20677;-55
2022/11/10 07:56:01;;;;;;;2.92;2.60;;;12.00;99.90;;;;;;4960332;28;20408;-55
2022/11/10 07:58:47;;;;;;;4.28;3.88;;;12.50;99.90;;;;;;4958140;28;20049;-55
2022/11/10 08:03:36;;;;;;;7.20;3.25;;;13.00;99.90;;;;;;5037881;28;21079;-57
2022/11/10 08:06:22;;;;;;;6.80;3.53;;;13.30;99.90;;;;;;5024327;28;20488;-56
2022/11/10 08:09:07;;;;;;;3.75;3.25;;;13.60;99.90;;;;;;5024024;28;20555;-55
2022/11/10 08:11:53;;;;;;;4.30;3.45;;;13.90;99.90;;;;;;5018071;28;20061;-65
2022/11/10 08:14:38;;;;;;;6.15;3.55;;;14.10;99.90;;;;;;5021207;28;20418;-55
2022/11/10 08:17:24;;;;;;;6.97;3.72;;;14.30;99.90;;;;;;5018786;28;20172;-53
2022/11/10 08:20:10;;;;;;;7.88;4.05;;;14.50;99.90;;;;;;5023035;28;20688;-54
2022/11/10 08:22:57;;;;;;;9.82;4.00;;;14.70;99.90;;;;;;5023877;28;20557;-55
2022/11/10 08:25:43;;;;;;;5.53;3.60;;;15.00;99.90;;;;;;5023201;28;20151;-54
2022/11/10 08:28:29;;;;;;;9.88;4.03;;;15.00;99.90;;;;;;5024192;28;20424;-55
2022/11/10 08:31:15;;;;;;;5.30;3.53;;;15.00;99.90;;;;;;5021992;28;20443;-54
2022/11/10 08:34:00;;;;;;;7.00;3.75;;;15.00;99.90;;;;;;5017887;28;20490;-60
2022/11/10 08:36:45;;;;;;;3.83;3.17;;;15.20;99.90;;;;;;5023299;28;20160;-58
2022/11/10 08:39:31;;;;;;;4.03;3.13;;;15.40;99.90;;;;;;5020536;28;20053;-55
2022/11/10 08:42:23;;;;;;;7.22;3.63;;;15.50;99.90;;;;;;5020272;28;20476;-54
2022/11/10 08:45:09;;;;;;;4.20;3.67;;;15.60;99.90;;;;;;5020466;28;20064;-57
2022/11/10 08:48:04;;;;;;;4.80;3.40;;;15.80;99.90;;;;;;5026080;28;20107;-56
2022/11/10 08:50:50;;;;;;;4.50;3.50;;;16.00;99.90;;;;;;5018845;28;20064;-58
2022/11/10 08:53:35;;;;;;;3.55;3.13;;;16.10;99.90;;;;;;5024527;28;20056;-59
2022/11/10 08:56:21;;;;;;;5.63;3.58;;;16.40;99.90;;;;;;5018491;28;20967;-53
2022/11/10 08:59:06;;;;;;;6.10;3.85;;;16.60;99.90;;;;;;5022871;28;20502;-53
2022/11/10 09:01:52;;;;;;;6.18;3.70;;;16.60;99.90;;;;;;5017319;28;20048;-53
2022/11/10 09:04:37;;;;;;;3.92;3.30;;;16.80;99.90;;;;;;5028671;28;20152;-53
2022/11/10 09:07:23;;;;;;;5.70;3.88;;;16.90;99.90;;;;;;5017399;28;20436;-53
2022/11/10 09:10:09;;;;;;;6.75;3.30;;;17.00;99.90;;;;;;5020673;28;20052;-54
2022/11/10 09:12:57;;;;;;;8.35;3.78;;;17.10;99.90;;;;;;5016650;28;20060;-54
2022/11/10 09:15:43;;;;;;;5.05;3.60;;;17.20;99.90;;;;;;5008316;28;20434;-53
2022/11/10 09:18:28;;;;;;;7.80;3.70;;;17.20;99.90;;;;;;5007631;28;20064;-55
2022/11/10 09:21:13;;;;;;;8.63;3.55;;;17.30;99.90;;;;;;5009604;28;20121;-55
2022/11/10 09:23:59;;;;;;;11.35;4.20;;;17.10;99.90;;;;;;5003081;28;20290;-54
2022/11/10 09:26:46;;;;;;;6.32;3.15;;;17.10;99.90;;;;;;5006636;28;20056;-54
2022/11/10 09:29:31;;;;;;;6.80;3.60;;;17.10;99.90;;;;;;5004650;28;20052;-55
2022/11/10 09:32:17;;;;;;;4.20;3.50;;;17.20;99.90;;;;;;5006809;28;20068;-55
2022/11/10 09:35:03;;;;;;;7.85;3.55;;;17.30;99.90;;;;;;5008864;28;20540;-56
2022/11/10 09:37:48;;;;;;;6.28;3.17;;;17.10;99.90;;;;;;5007016;28;20176;-55
2022/11/10 09:40:52;;;;;;;6.38;4.03;;;17.10;99.90;;;;;;5006482;28;20549;-56
2022/11/10 09:43:43;;;;;;;5.45;3.70;;;16.90;99.90;;;;;;5001512;28;20270;-56
2022/11/10 09:46:35;;;;;;;9.85;4.65;;;16.80;99.90;;;;;;5004453;28;20056;-55
2022/11/10 09:49:30;;;;;;;8.32;4.53;;;16.70;99.90;;;;;;5008133;28;20052;-55
2022/11/10 09:52:19;;;;;;;6.88;4.32;;;16.80;99.90;;;;;;5007555;28;20131;-56
2022/11/10 09:55:27;;;;;;;8.43;5.32;;;16.80;99.90;;;;;;5008788;28;20122;-54
2022/11/10 09:58:13;;;;;;;8.15;5.35;;;16.60;99.90;;;;;;5005532;28;20072;-54
2022/11/10 10:01:28;;;;;;;8.95;5.45;;;16.40;99.90;;;;;;5005291;28;20562;-55
2022/11/10 10:04:41;;;;;;;9.02;4.78;;;16.10;99.90;;;;;;5010670;28;20065;-55
2022/11/10 10:07:54;;;;;;;7.85;3.85;;;15.70;99.90;;;;;;5007999;28;20053;-54
2022/11/10 10:10:44;;;;;;;7.20;4.22;;;15.30;99.90;;;;;;5010110;28;20428;-57
2022/11/10 10:13:59;;;;;;;4.93;3.55;;;15.00;99.90;;;;;;5006853;28;20072;-55
2022/11/10 10:17:17;;;;;;;7.05;3.50;;;14.60;99.90;;;;;;5004281;28;20095;-54
2022/11/10 10:20:24;;;;;;;5.10;3.58;;;14.30;99.90;;;;;;5009025;28;20056;-55
2022/11/10 10:23:33;;;;;;;7.07;4.20;;;14.10;99.90;;;;;;5004429;28;20060;-56
2022/11/10 10:27:02;;;;;;;9.55;4.30;;;14.00;99.90;;;;;;5008087;28;20109;-55
2022/11/10 10:29:50;;;;;;;6.32;4.50;;;14.30;99.90;;;;;;5006227;28;20056;-56
2022/11/10 10:32:35;;;;;;;7.20;4.30;;;14.90;99.90;;;;;;5003869;28;20199;-55
2022/11/10 10:35:21;;;;;;;7.43;4.00;;;15.40;99.90;;;;;;5004814;28;20059;-55
2022/11/10 10:38:24;;;;;;;6.68;3.53;;;16.10;99.90;;;;;;5006907;28;20055;-55
2022/11/10 10:41:21;;;;;;;6.18;3.22;;;16.70;99.90;;;;;;5002665;28;20488;-57
2022/11/10 10:44:09;;;;;;;;;;;17.20;99.90;;;;;;5005574;28;20565;-55
2022/11/10 10:46:58;;;;;;;5.18;3.22;;;17.60;99.90;;;;;;5000451;28;20028;-55
2022/11/10 10:49:43;;;;;;;6.55;3.55;;;17.90;99.90;;;;;;5001102;28;20143;-54
2022/11/10 10:52:29;;;;;;;6.13;3.85;;;18.10;99.90;;;;;;5001666;28;20388;-55
2022/11/10 10:55:14;;;;;;;4.70;2.70;;;18.20;99.90;;;;;;5010847;28;20435;-57
2022/11/10 10:58:16;;;;;;;6.57;3.67;;;18.30;99.90;;;;;;5008363;28;20060;-54
2022/11/10 11:01:31;;;;;;;6.30;4.03;;;18.40;99.90;;;;;;5004682;28;20450;-54
2022/11/10 11:04:27;;;;;;;6.15;2.78;;;18.40;99.90;;;;;;5004722;28;20064;-53
2022/11/10 11:07:23;;;;;;;6.72;3.22;;;18.50;99.90;;;;;;5004368;28;20415;-56
2022/11/10 11:10:22;;;;;;;5.28;3.03;;;18.60;99.90;;;;;;5003831;28;20475;-56
2022/11/10 11:13:15;;;;;;;7.85;3.63;;;18.80;99.90;;;;;;5008377;28;20482;-55
2022/11/10 11:16:03;;;;;;;5.30;4.18;;;19.00;99.90;;;;;;5004976;28;20562;-56
2022/11/10 11:18:49;;;;;;;7.03;3.47;;;19.00;99.90;;;;;;5000124;28;20266;-55
2022/11/10 11:21:43;;;;;;;6.15;3.63;;;19.10;99.90;;;;;;5003822;28;20087;-54
2022/11/10 11:24:47;;;;;;;4.90;3.50;;;19.20;99.90;;;;;;5004025;28;20169;-55
2022/11/10 11:27:50;;;;;;;4.78;2.90;;;19.30;99.90;;;;;;5004022;28;20052;-55
2022/11/10 11:30:56;;;;;;;3.80;3.08;;;19.40;98.90;;;;;;5004790;28;20060;-56
2022/11/10 11:34:09;;;;;;;5.85;3.72;;;19.40;97.60;;;;;;5005045;28;20052;-57
2022/11/10 11:37:18;;;;;;;6.63;3.85;;;19.20;98.40;;;;;;5002712;28;20183;-56
2022/11/10 11:40:22;;;;;;;4.40;2.85;;;18.70;99.60;;;;;;5005947;28;20792;-55
2022/11/10 11:43:57;;;;;;;3.95;3.42;;;18.30;99.90;;;;;;5006274;28;20060;-54
2022/11/10 11:47:17;;;;;;;4.80;3.70;;;18.20;99.90;;;;;;5008294;28;20369;-54
2022/11/10 11:50:18;;;;;;;5.18;3.70;;;18.10;99.90;;;;;;5000281;28;20638;-54
2022/11/10 11:53:37;;;;;;;7.22;4.60;;;18.00;99.90;;;;;;5004203;28;20056;-52
2022/11/10 11:56:27;;;;;;;5.78;4.40;;;17.90;99.90;;;;;;5002281;28;20151;-56
2022/11/10 11:59:28;;;;;;;6.28;4.40;;;17.70;99.90;;;;;;5007481;28;20067;-55
2022/11/10 12:02:27;;;;;;;5.97;3.92;;;17.70;99.90;;;;;;5001052;28;20053;-56
2022/11/10 12:05:43;;;;;;;9.70;5.45;;;17.70;99.90;;;;;;5007270;28;20642;-55
2022/11/10 12:08:47;;;;;;;8.80;5.45;;;17.70;99.90;;;;;;5001099;28;20061;-56
2022/11/10 12:11:54;;;;;;;6.43;3.75;;;17.40;99.90;;;;;;5006776;28;20133;-53
2022/11/10 12:15:23;;;;;;;6.35;4.20;;;17.00;99.90;;;;;;5008813;28;20087;-56
2022/11/10 12:18:28;;;;;;;7.57;4.68;;;16.70;99.90;;;;;;4995829;28;20061;-55
2022/11/10 12:21:29;;;;;;;6.22;4.03;;;16.50;99.90;;;;;;5006609;28;20060;-56
2022/11/10 12:24:31;;;;;;;7.20;4.00;;;16.40;99.90;;;;;;5004051;28;20057;-55
2022/11/10 12:27:39;;;;;;;7.45;5.32;;;16.40;99.90;;;;;;5003457;28;20411;-56
2022/11/10 12:30:25;;;;;;;10.75;5.35;;;16.50;99.90;;;;;;5002944;28;20115;-52
2022/11/10 12:33:31;;;;;;;5.85;4.30;;;16.50;99.90;;;;;;5002162;28;20057;-56
2022/11/10 12:36:20;;;;;;;6.35;3.92;;;16.50;99.90;;;;;;5001411;28;20081;-55
2022/11/10 12:39:20;;;;;;;5.68;4.15;;;16.40;99.90;;;;;;5003087;28;20107;-54
2022/11/10 12:42:28;;;;;;;6.65;5.28;;;16.60;99.90;;;;;;5002071;28;20057;-54
2022/11/10 12:45:31;;;;;;;6.85;5.18;;;16.90;99.90;;;;;;5002187;28;20232;-55
2022/11/10 12:48:17;;;;;;;5.40;4.05;;;17.00;99.90;;;;;;5004545;28;20056;-56
2022/11/10 12:51:30;;;;;;;7.45;5.03;;;16.80;99.90;;;;;;5002363;28;20057;-53
2022/11/10 12:54:18;;;;;;;8.85;5.93;;;16.80;99.90;;;;;;5010454;28;20065;-55
2022/11/10 12:57:12;;;;;;;;;;;16.80;99.90;;;;;;5007239;28;20701;-55
2022/11/10 13:00:06;;;;;;;4.82;4.32;;;16.80;99.90;;;;;;5006015;28;20401;-55
2022/11/10 13:02:54;;;;;;;4.68;4.18;;;16.70;99.90;;;;;;5003960;28;20059;-55
2022/11/10 13:05:52;;;;;;;6.70;4.10;;;16.40;99.90;;;;;;5007828;28;20052;-54
2022/11/10 13:08:41;;;;;;;5.55;4.13;;;16.40;99.90;;;;;;5008631;28;20057;-54
2022/11/10 13:11:31;;;;;;;6.45;4.53;;;16.30;99.90;;;;;;5005661;28;20096;-53
2022/11/10 13:14:27;;;;;;;7.20;4.38;;;16.30;99.90;;;;;;5007127;28;20072;-54
2022/11/10 13:17:27;;;;;;;7.18;5.13;;;15.90;99.90;;;;;;5004033;28;20515;-54
2022/11/10 13:20:38;;;;;;;5.25;3.78;;;15.50;99.90;;;;;;5009103;28;20639;-55
2022/11/10 13:23:24;;;;;;;4.18;3.60;;;15.30;99.90;;;;;;5008298;28;20534;-63
2022/11/10 13:26:30;;;;;;;6.45;4.18;;;15.10;99.90;;;;;;5008119;28;20106;-54
2022/11/10 13:29:52;;;;;;;5.38;3.88;;;15.20;99.90;;;;;;5006943;28;20135;-55
2022/11/10 13:32:38;;;;;;;4.63;3.58;;;15.40;99.90;;;;;;5007039;28;20080;-54
2022/11/10 13:35:26;;;;;;;4.25;3.65;;;15.70;99.90;;;;;;5007494;28;20068;-54
2022/11/10 13:38:33;;;;;;;5.95;3.50;;;15.90;99.90;;;;;;5008447;28;20353;-56
2022/11/10 13:41:25;;;;;;;4.53;3.85;;;16.20;99.90;;;;;;5004248;28;20331;-55
2022/11/10 13:44:24;;;;;;;5.30;4.47;;;16.40;99.90;;;;;;5013681;28;20613;-55
2022/11/10 13:47:33;;;;;;;6.72;4.65;;;16.60;99.90;;;;;;5005050;28;20060;-55
2022/11/10 13:50:24;;;;;;;;;;;16.70;99.90;;;;;;5007270;28;20061;-53
2022/11/10 13:53:19;;;;;;;6.25;4.55;;;16.80;99.90;;;;;;5009684;28;20257;-55
2022/11/10 13:56:31;;;;;;;6.15;3.90;;;16.90;99.90;;;;;;5007923;28;20534;-55
2022/11/10 13:59:20;;;;;;;8.18;4.72;;;16.90;99.90;;;;;;5007108;28;20194;-56
2022/11/10 14:02:40;;;;;;;6.50;4.15;;;16.90;99.90;;;;;;5010755;28;20064;-54
2022/11/10 14:05:29;;;;;;;4.72;3.83;;;17.00;99.90;;;;;;5004368;28;20065;-57
2022/11/10 14:08:21;;;;;;;6.97;4.28;;;17.00;99.90;;;;;;5003277;28;20075;-55
2022/11/10 14:11:18;;;;;;;7.18;4.05;;;17.10;99.90;;;;;;5010456;28;20081;-56
2022/11/10 14:14:13;;;;;;;5.80;3.72;;;17.10;99.90;;;;;;5009706;28;20075;-56
2022/11/10 14:16:59;;;;;;;7.18;4.30;;;17.10;99.90;;;;;;5011892;28;20169;-55
2022/11/10 14:19:46;;;;;;;5.18;3.80;;;17.10;99.90;;;;;;5010992;28;20924;-55
2022/11/10 14:22:40;;;;;;;5.75;3.65;;;17.10;99.90;;;;;;5007888;28;20092;-55
2022/11/10 14:25:39;;;;;;;8.50;4.18;;;17.00;99.90;;;;;;5007014;28;20057;-55
2022/11/10 14:28:27;;;;;;;6.53;4.00;;;17.00;99.90;;;;;;5002966;28;20061;-57
2022/11/10 14:31:20;;;;;;;;;;;16.80;99.90;;;;;;5008473;28;20053;-57
2022/11/10 14:34:14;;;;;;;6.35;4.35;;;16.50;99.90;;;;;;5012098;28;20061;-57
2022/11/10 14:37:02;;;;;;;5.50;4.28;;;16.20;99.90;;;;;;5003535;28;20460;-57
2022/11/10 14:39:48;;;;;;;;;;;15.60;99.90;;;;;;5006242;28;20419;-55
2022/11/10 14:42:34;;;;;;;4.57;3.63;;;15.10;99.90;;;;;;5002851;28;20119;-56
2022/11/10 14:45:23;;;;;;;6.85;4.28;;;14.60;99.90;;;;;;5008423;28;20776;-56
2022/11/10 14:48:17;;;;;;;4.40;3.55;;;14.20;99.90;;;;;;5010887;28;20482;-57
2022/11/10 14:51:16;;;;;;;7.85;5.03;;;13.80;99.90;;;;;;5003671;28;20551;-55
2022/11/10 14:54:02;;;;;;;5.85;4.30;;;13.50;99.90;;;;;;5004546;28;20079;-56
2022/11/10 14:56:47;;;;;;;9.40;5.32;;;13.10;99.90;;;;;;5005315;28;20060;-56
2022/11/10 14:59:33;;;;;;;6.35;3.22;;;12.90;99.90;;;;;;5003236;28;20243;-57
2022/11/10 15:02:18;;;;;;;9.75;5.32;;;12.60;99.90;;;;;;5004536;28;20060;-56
2022/11/10 15:05:04;;;;;;;8.13;4.93;;;12.40;99.90;;;;;;5007357;28;20427;-55
2022/11/10 15:07:56;;;;;;;6.53;5.32;;;12.20;99.90;;;;;;5006001;28;20136;-55
2022/11/10 15:10:49;;;;;;;8.77;5.18;;;12.00;99.90;;;;;;5007891;28;20446;-55